sensor_id;sensor_type;location;lat;lon;timestamp;pressure;altitude;pressure_sealevel;temperature;humidity
51321;BME280;38732;49.556;6.286;2023-01-29T00:01:59;100910.91;;;4.35;57.14
51321;BME280;38732;49.556;6.286;2023-01-29T00:04:27;100914.25;;;4.34;56.75
51321;BME280;38732;49.556;6.286;2023-01-29T00:06:55;100921.03;;;4.33;56.47
51321;BME280;38732;49.556;6.286;2023-01-29T00:09:24;100920.41;;;4.38;57.52
51321;BME280;38732;49.556;6.286;2023-01-29T00:11:52;100917.84;;;4.38;57.53
51321;BME280;38732;49.556;6.286;2023-01-29T00:14:20;100921.88;;;4.32;58.08
51321;BME280;38732;49.556;6.286;2023-01-29T00:16:48;100927.13;;;4.36;58.29
51321;BME280;38732;49.556;6.286;2023-01-29T00:19:16;100921.13;;;4.35;57.47
51321;BME280;38732;49.556;6.286;2023-01-29T00:21:45;100922.00;;;4.36;57.55
51321;BME280;38732;49.556;6.286;2023-01-29T00:24:13;100925.44;;;4.36;58.51
51321;BME280;38732;49.556;6.286;2023-01-29T00:26:41;100916.97;;;4.37;57.59
51321;BME280;38732;49.556;6.286;2023-01-29T00:29:09;100920.47;;;4.39;58.53
51321;BME280;38732;49.556;6.286;2023-01-29T00:31:38;100922.88;;;4.36;59.31
51321;BME280;38732;49.556;6.286;2023-01-29T00:34:06;100922.09;;;4.37;58.22
51321;BME280;38732;49.556;6.286;2023-01-29T00:36:34;100926.38;;;4.38;58.39
51321;BME280;38732;49.556;6.286;2023-01-29T00:39:02;100922.97;;;4.38;58.72
51321;BME280;38732;49.556;6.286;2023-01-29T00:41:31;100927.84;;;4.33;58.94
51321;BME280;38732;49.556;6.286;2023-01-29T00:44:00;100929.69;;;4.36;58.64
51321;BME280;38732;49.556;6.286;2023-01-29T00:46:28;100930.63;;;4.38;58.82
51321;BME280;38732;49.556;6.286;2023-01-29T00:48:57;100932.97;;;4.33;58.96
51321;BME280;38732;49.556;6.286;2023-01-29T00:51:25;100934.56;;;4.31;59.10
51321;BME280;38732;49.556;6.286;2023-01-29T00:53:53;100930.31;;;4.31;58.42
51321;BME280;38732;49.556;6.286;2023-01-29T00:56:21;100939.09;;;4.37;58.90
51321;BME280;38732;49.556;6.286;2023-01-29T00:58:49;100933.78;;;4.32;59.02
51321;BME280;38732;49.556;6.286;2023-01-29T01:01:18;100932.16;;;4.34;58.58
51321;BME280;38732;49.556;6.286;2023-01-29T01:03:46;100939.69;;;4.31;58.79
51321;BME280;38732;49.556;6.286;2023-01-29T01:06:15;100938.94;;;4.33;58.51
51321;BME280;38732;49.556;6.286;2023-01-29T01:08:43;100926.97;;;4.32;57.74
51321;BME280;38732;49.556;6.286;2023-01-29T01:11:11;100932.16;;;4.34;57.58
51321;BME280;38732;49.556;6.286;2023-01-29T01:13:39;100926.09;;;4.32;56.81
51321;BME280;38732;49.556;6.286;2023-01-29T01:16:12;100927.47;;;4.25;57.22
51321;BME280;38732;49.556;6.286;2023-01-29T01:18:41;100917.97;;;4.23;58.34
51321;BME280;38732;49.556;6.286;2023-01-29T01:21:09;100914.97;;;4.31;57.54
51321;BME280;38732;49.556;6.286;2023-01-29T01:23:38;100913.16;;;4.29;58.19
51321;BME280;38732;49.556;6.286;2023-01-29T01:26:09;100912.13;;;4.25;57.32
51321;BME280;38732;49.556;6.286;2023-01-29T01:28:37;100914.69;;;4.25;58.20
51321;BME280;38732;49.556;6.286;2023-01-29T01:31:12;100911.19;;;4.23;57.98
51321;BME280;38732;49.556;6.286;2023-01-29T01:33:41;100907.03;;;4.25;58.52
51321;BME280;38732;49.556;6.286;2023-01-29T01:36:09;100905.97;;;4.22;58.33
51321;BME280;38732;49.556;6.286;2023-01-29T01:38:38;100901.81;;;4.24;58.36
51321;BME280;38732;49.556;6.286;2023-01-29T01:41:06;100907.75;;;4.23;58.37
51321;BME280;38732;49.556;6.286;2023-01-29T01:43:55;100912.06;;;4.24;57.55
51321;BME280;38732;49.556;6.286;2023-01-29T01:46:27;100900.88;;;4.22;57.68
51321;BME280;38732;49.556;6.286;2023-01-29T01:49:03;100904.16;;;4.19;58.00
51321;BME280;38732;49.556;6.286;2023-01-29T01:51:35;100898.84;;;4.15;58.46
51321;BME280;38732;49.556;6.286;2023-01-29T01:54:09;100901.78;;;4.22;58.28
51321;BME280;38732;49.556;6.286;2023-01-29T01:56:43;100896.34;;;4.16;58.68
51321;BME280;38732;49.556;6.286;2023-01-29T01:59:15;100895.47;;;4.16;57.97
51321;BME280;38732;49.556;6.286;2023-01-29T02:01:46;100885.47;;;4.20;57.88
51321;BME280;38732;49.556;6.286;2023-01-29T02:04:20;100886.50;;;4.24;58.52
51321;BME280;38732;49.556;6.286;2023-01-29T02:06:51;100882.09;;;4.21;57.05
51321;BME280;38732;49.556;6.286;2023-01-29T02:09:25;100875.91;;;4.16;57.62
51321;BME280;38732;49.556;6.286;2023-01-29T02:11:56;100874.06;;;4.14;56.90
51321;BME280;38732;49.556;6.286;2023-01-29T02:14:24;100867.13;;;4.11;57.88
51321;BME280;38732;49.556;6.286;2023-01-29T02:16:52;100863.84;;;4.14;57.46
51321;BME280;38732;49.556;6.286;2023-01-29T02:19:35;100868.44;;;4.21;58.11
51321;BME280;38732;49.556;6.286;2023-01-29T02:22:57;100864.88;;;4.17;58.56
51321;BME280;38732;49.556;6.286;2023-01-29T02:25:11;100867.50;;;4.19;58.20
51321;BME280;38732;49.556;6.286;2023-01-29T02:28:06;100875.16;;;4.19;58.31
51321;BME280;38732;49.556;6.286;2023-01-29T02:30:46;100881.59;;;4.10;58.92
51321;BME280;38732;49.556;6.286;2023-01-29T02:33:53;100876.84;;;4.18;59.43
51321;BME280;38732;49.556;6.286;2023-01-29T02:39:27;100887.94;;;4.19;58.45
51321;BME280;38732;49.556;6.286;2023-01-29T02:42:21;100891.47;;;4.21;58.70
51321;BME280;38732;49.556;6.286;2023-01-29T02:44:59;100893.88;;;4.18;58.62
51321;BME280;38732;49.556;6.286;2023-01-29T02:47:43;100897.31;;;4.18;58.67
51321;BME280;38732;49.556;6.286;2023-01-29T02:50:21;100900.81;;;4.20;58.09
51321;BME280;38732;49.556;6.286;2023-01-29T02:55:46;100896.56;;;4.21;57.75
51321;BME280;38732;49.556;6.286;2023-01-29T02:58:20;100900.50;;;4.14;58.67
51321;BME280;38732;49.556;6.286;2023-01-29T03:00:54;100898.91;;;4.16;58.00
51321;BME280;38732;49.556;6.286;2023-01-29T03:03:31;100895.34;;;4.13;58.44
51321;BME280;38732;49.556;6.286;2023-01-29T03:06:14;100889.25;;;4.10;58.74
51321;BME280;38732;49.556;6.286;2023-01-29T03:08:49;100891.72;;;4.09;57.14
51321;BME280;38732;49.556;6.286;2023-01-29T03:11:20;100884.25;;;4.12;57.40
51321;BME280;38732;49.556;6.286;2023-01-29T03:16:28;100894.38;;;4.10;58.29
51321;BME280;38732;49.556;6.286;2023-01-29T03:19:06;100880.72;;;4.10;58.62
51321;BME280;38732;49.556;6.286;2023-01-29T03:21:39;100884.06;;;4.09;58.84
51321;BME280;38732;49.556;6.286;2023-01-29T03:24:12;100874.00;;;4.12;58.29
51321;BME280;38732;49.556;6.286;2023-01-29T03:26:42;100873.06;;;4.10;59.54
51321;BME280;38732;49.556;6.286;2023-01-29T03:29:11;100873.84;;;4.09;59.00
51321;BME280;38732;49.556;6.286;2023-01-29T03:31:39;100877.94;;;4.05;58.70
51321;BME280;38732;49.556;6.286;2023-01-29T03:34:16;100870.78;;;3.98;57.98
51321;BME280;38732;49.556;6.286;2023-01-29T03:36:53;100869.19;;;4.00;57.53
51321;BME280;38732;49.556;6.286;2023-01-29T03:39:24;100877.78;;;4.02;57.89
51321;BME280;38732;49.556;6.286;2023-01-29T03:42:06;100881.88;;;3.99;58.44
51321;BME280;38732;49.556;6.286;2023-01-29T03:44:45;100888.16;;;4.05;58.42
51321;BME280;38732;49.556;6.286;2023-01-29T03:47:21;100888.25;;;4.07;57.97
51321;BME280;38732;49.556;6.286;2023-01-29T03:49:58;100893.19;;;4.04;57.60
51321;BME280;38732;49.556;6.286;2023-01-29T03:52:50;100906.91;;;4.06;58.61
51321;BME280;38732;49.556;6.286;2023-01-29T03:55:35;100909.19;;;4.00;58.47
51321;BME280;38732;49.556;6.286;2023-01-29T03:58:15;100908.47;;;4.02;58.41
51321;BME280;38732;49.556;6.286;2023-01-29T04:00:57;100900.63;;;3.99;58.19
51321;BME280;38732;49.556;6.286;2023-01-29T04:03:34;100893.91;;;4.01;57.97
51321;BME280;38732;49.556;6.286;2023-01-29T04:06:11;100894.50;;;3.96;57.87
51321;BME280;38732;49.556;6.286;2023-01-29T04:08:55;100899.69;;;3.97;58.16
51321;BME280;38732;49.556;6.286;2023-01-29T04:11:26;100896.22;;;3.97;58.49
51321;BME280;38732;49.556;6.286;2023-01-29T04:13:57;100899.59;;;3.96;58.97
51321;BME280;38732;49.556;6.286;2023-01-29T04:16:29;100901.19;;;3.94;58.15
51321;BME280;38732;49.556;6.286;2023-01-29T04:18:59;100890.25;;;3.96;58.63
51321;BME280;38732;49.556;6.286;2023-01-29T04:21:28;100891.06;;;3.95;58.60
51321;BME280;38732;49.556;6.286;2023-01-29T04:23:56;100898.78;;;3.97;59.42
51321;BME280;38732;49.556;6.286;2023-01-29T04:26:52;100889.47;;;3.97;59.21
51321;BME280;38732;49.556;6.286;2023-01-29T04:32:28;100903.53;;;3.89;58.67
51321;BME280;38732;49.556;6.286;2023-01-29T04:35:26;100901.88;;;3.89;59.05
51321;BME280;38732;49.556;6.286;2023-01-29T04:38:10;100900.25;;;3.92;58.97
51321;BME280;38732;49.556;6.286;2023-01-29T04:40:50;100899.13;;;3.86;60.48
51321;BME280;38732;49.556;6.286;2023-01-29T04:43:29;100900.19;;;3.90;60.26
51321;BME280;38732;49.556;6.286;2023-01-29T04:46:08;100900.19;;;3.90;58.66
51321;BME280;38732;49.556;6.286;2023-01-29T04:51:52;100886.75;;;3.94;60.24
51321;BME280;38732;49.556;6.286;2023-01-29T04:57:42;100897.53;;;3.88;59.15
51321;BME280;38732;49.556;6.286;2023-01-29T05:00:19;100890.59;;;3.86;58.42
51321;BME280;38732;49.556;6.286;2023-01-29T05:02:49;100888.00;;;3.84;58.66
51321;BME280;38732;49.556;6.286;2023-01-29T05:05:19;100888.13;;;3.87;59.38
51321;BME280;38732;49.556;6.286;2023-01-29T05:07:47;100886.44;;;3.88;58.50
51321;BME280;38732;49.556;6.286;2023-01-29T05:10:17;100882.22;;;3.88;57.92
51321;BME280;38732;49.556;6.286;2023-01-29T05:12:50;100883.03;;;3.87;58.32
51321;BME280;38732;49.556;6.286;2023-01-29T05:15:25;100890.47;;;3.83;57.86
51321;BME280;38732;49.556;6.286;2023-01-29T05:17:56;100890.38;;;3.81;58.21
51321;BME280;38732;49.556;6.286;2023-01-29T05:20:24;100885.69;;;3.73;57.80
51321;BME280;38732;49.556;6.286;2023-01-29T05:22:52;100887.38;;;3.72;57.88
51321;BME280;38732;49.556;6.286;2023-01-29T05:25:23;100880.59;;;3.73;58.63
51321;BME280;38732;49.556;6.286;2023-01-29T05:27:53;100874.44;;;3.69;58.33
51321;BME280;38732;49.556;6.286;2023-01-29T05:30:21;100866.03;;;3.72;58.38
51321;BME280;38732;49.556;6.286;2023-01-29T05:32:49;100862.63;;;3.71;58.22
51321;BME280;38732;49.556;6.286;2023-01-29T05:35:17;100856.53;;;3.69;58.71
51321;BME280;38732;49.556;6.286;2023-01-29T05:37:46;100873.63;;;3.70;58.74
51321;BME280;38732;49.556;6.286;2023-01-29T05:40:14;100879.47;;;3.67;58.24
51321;BME280;38732;49.556;6.286;2023-01-29T05:42:42;100874.28;;;3.66;58.48
51321;BME280;38732;49.556;6.286;2023-01-29T05:45:10;100863.34;;;3.68;57.83
51321;BME280;38732;49.556;6.286;2023-01-29T05:47:38;100868.22;;;3.64;58.25
51321;BME280;38732;49.556;6.286;2023-01-29T05:50:07;100865.28;;;3.56;57.64
51321;BME280;38732;49.556;6.286;2023-01-29T05:52:36;100858.47;;;3.57;59.13
51321;BME280;38732;49.556;6.286;2023-01-29T05:55:04;100865.41;;;3.59;58.44
51321;BME280;38732;49.556;6.286;2023-01-29T05:57:33;100870.22;;;3.53;58.86
51321;BME280;38732;49.556;6.286;2023-01-29T06:00:02;100873.03;;;3.58;57.74
51321;BME280;38732;49.556;6.286;2023-01-29T06:02:30;100885.13;;;3.62;57.72
51321;BME280;38732;49.556;6.286;2023-01-29T06:04:58;100885.06;;;3.60;57.65
51321;BME280;38732;49.556;6.286;2023-01-29T06:07:26;100876.22;;;3.54;57.63
51321;BME280;38732;49.556;6.286;2023-01-29T06:09:55;100872.78;;;3.53;58.45
51321;BME280;38732;49.556;6.286;2023-01-29T06:12:23;100883.88;;;3.54;58.60
51321;BME280;38732;49.556;6.286;2023-01-29T06:14:51;100888.09;;;3.53;58.80
51321;BME280;38732;49.556;6.286;2023-01-29T06:17:19;100895.84;;;3.55;59.14
51321;BME280;38732;49.556;6.286;2023-01-29T06:19:49;100905.09;;;3.53;59.03
51321;BME280;38732;49.556;6.286;2023-01-29T06:22:17;100903.50;;;3.55;59.05
51321;BME280;38732;49.556;6.286;2023-01-29T06:24:45;100905.88;;;3.52;58.39
51321;BME280;38732;49.556;6.286;2023-01-29T06:27:14;100892.41;;;3.54;58.73
51321;BME280;38732;49.556;6.286;2023-01-29T06:29:42;100887.13;;;3.51;60.76
51321;BME280;38732;49.556;6.286;2023-01-29T06:32:10;100880.16;;;3.47;61.18
51321;BME280;38732;49.556;6.286;2023-01-29T06:34:38;100888.44;;;3.43;61.90
51321;BME280;38732;49.556;6.286;2023-01-29T06:37:06;100892.56;;;3.41;61.82
51321;BME280;38732;49.556;6.286;2023-01-29T06:39:35;100887.56;;;3.42;62.77
51321;BME280;38732;49.556;6.286;2023-01-29T06:42:03;100881.78;;;3.46;62.29
51321;BME280;38732;49.556;6.286;2023-01-29T06:44:31;100871.59;;;3.46;61.34
51321;BME280;38732;49.556;6.286;2023-01-29T06:46:59;100875.75;;;3.44;60.96
51321;BME280;38732;49.556;6.286;2023-01-29T06:49:27;100877.78;;;3.52;60.91
51321;BME280;38732;49.556;6.286;2023-01-29T06:51:56;100878.13;;;3.58;60.17
51321;BME280;38732;49.556;6.286;2023-01-29T06:54:24;100877.75;;;3.50;59.75
51321;BME280;38732;49.556;6.286;2023-01-29T06:56:52;100881.56;;;3.42;60.41
51321;BME280;38732;49.556;6.286;2023-01-29T06:59:21;100882.50;;;3.44;60.81
51321;BME280;38732;49.556;6.286;2023-01-29T07:01:49;100879.25;;;3.46;59.95
51321;BME280;38732;49.556;6.286;2023-01-29T07:04:17;100876.38;;;3.40;59.97
51321;BME280;38732;49.556;6.286;2023-01-29T07:06:45;100879.91;;;3.42;59.68
51321;BME280;38732;49.556;6.286;2023-01-29T07:09:13;100881.66;;;3.43;59.82
51321;BME280;38732;49.556;6.286;2023-01-29T07:11:42;100880.06;;;3.45;59.19
51321;BME280;38732;49.556;6.286;2023-01-29T07:14:10;100873.97;;;3.43;59.81
51321;BME280;38732;49.556;6.286;2023-01-29T07:16:38;100875.19;;;3.50;59.58
51321;BME280;38732;49.556;6.286;2023-01-29T07:19:06;100878.13;;;3.41;59.32
51321;BME280;38732;49.556;6.286;2023-01-29T07:21:35;100881.75;;;3.45;59.68
51321;BME280;38732;49.556;6.286;2023-01-29T07:24:04;100879.19;;;3.45;60.13
51321;BME280;38732;49.556;6.286;2023-01-29T07:26:32;100881.56;;;3.42;60.02
51321;BME280;38732;49.556;6.286;2023-01-29T07:29:00;100879.81;;;3.41;60.30
51321;BME280;38732;49.556;6.286;2023-01-29T07:31:28;100889.94;;;3.39;59.94
51321;BME280;38732;49.556;6.286;2023-01-29T07:33:57;100895.03;;;3.39;60.00
51321;BME280;38732;49.556;6.286;2023-01-29T07:36:25;100898.66;;;3.43;60.54
51321;BME280;38732;49.556;6.286;2023-01-29T07:38:53;100900.22;;;3.41;61.17
51321;BME280;38732;49.556;6.286;2023-01-29T07:41:21;100901.19;;;3.43;59.99
51321;BME280;38732;49.556;6.286;2023-01-29T07:43:49;100900.72;;;3.50;61.92
51321;BME280;38732;49.556;6.286;2023-01-29T07:46:18;100904.06;;;3.49;60.52
51321;BME280;38732;49.556;6.286;2023-01-29T07:48:46;100903.56;;;3.56;59.69
51321;BME280;38732;49.556;6.286;2023-01-29T07:51:14;100896.56;;;3.52;60.09
51321;BME280;38732;49.556;6.286;2023-01-29T07:53:42;100901.16;;;3.59;59.29
51321;BME280;38732;49.556;6.286;2023-01-29T07:56:10;100909.72;;;3.60;59.21
51321;BME280;38732;49.556;6.286;2023-01-29T07:58:39;100917.44;;;3.61;59.25
51321;BME280;38732;49.556;6.286;2023-01-29T08:01:07;100923.84;;;3.70;61.63
51321;BME280;38732;49.556;6.286;2023-01-29T08:03:35;100934.06;;;3.70;61.33
51321;BME280;38732;49.556;6.286;2023-01-29T08:06:04;100927.09;;;3.83;61.59
51321;BME280;38732;49.556;6.286;2023-01-29T08:08:32;100922.78;;;3.82;59.03
51321;BME280;38732;49.556;6.286;2023-01-29T08:11:01;100920.47;;;3.87;60.32
51321;BME280;38732;49.556;6.286;2023-01-29T08:13:31;100928.78;;;3.83;59.59
51321;BME280;38732;49.556;6.286;2023-01-29T08:16:01;100936.97;;;3.94;59.57
51321;BME280;38732;49.556;6.286;2023-01-29T08:18:29;100935.09;;;3.89;59.92
51321;BME280;38732;49.556;6.286;2023-01-29T08:20:59;100936.34;;;3.98;58.99
51321;BME280;38732;49.556;6.286;2023-01-29T08:23:28;100937.34;;;4.01;60.37
51321;BME280;38732;49.556;6.286;2023-01-29T08:25:56;100929.91;;;4.06;59.32
51321;BME280;38732;49.556;6.286;2023-01-29T08:28:24;100924.16;;;3.10;60.98
51321;BME280;38732;49.556;6.286;2023-01-29T08:30:53;100916.50;;;3.59;60.98
51321;BME280;38732;49.556;6.286;2023-01-29T08:33:21;100916.16;;;3.86;58.63
51321;BME280;38732;49.556;6.286;2023-01-29T08:35:50;100912.00;;;3.88;59.13
51321;BME280;38732;49.556;6.286;2023-01-29T08:38:18;100915.13;;;3.17;62.81
51321;BME280;38732;49.556;6.286;2023-01-29T08:40:46;100917.94;;;3.21;62.43
51321;BME280;38732;49.556;6.286;2023-01-29T08:43:14;100926.00;;;2.50;65.38
51321;BME280;38732;49.556;6.286;2023-01-29T08:45:42;100929.81;;;3.54;60.31
51321;BME280;38732;49.556;6.286;2023-01-29T08:48:11;100927.97;;;3.84;61.58
51321;BME280;38732;49.556;6.286;2023-01-29T08:50:39;100932.91;;;3.97;61.01
51321;BME280;38732;49.556;6.286;2023-01-29T08:53:08;100937.06;;;3.95;58.82
51321;BME280;38732;49.556;6.286;2023-01-29T08:55:39;100933.03;;;3.50;59.44
51321;BME280;38732;49.556;6.286;2023-01-29T08:58:10;100946.09;;;3.88;58.30
51321;BME280;38732;49.556;6.286;2023-01-29T09:00:38;100946.66;;;3.83;59.27
51321;BME280;38732;49.556;6.286;2023-01-29T09:03:06;100942.75;;;3.73;60.12
51321;BME280;38732;49.556;6.286;2023-01-29T09:05:36;100935.47;;;3.97;58.36
51321;BME280;38732;49.556;6.286;2023-01-29T09:08:06;100938.41;;;4.05;59.40
51321;BME280;38732;49.556;6.286;2023-01-29T09:10:35;100934.25;;;4.07;59.83
51321;BME280;38732;49.556;6.286;2023-01-29T09:13:03;100934.56;;;4.31;58.05
51321;BME280;38732;49.556;6.286;2023-01-29T09:15:31;100937.06;;;4.29;57.05
51321;BME280;38732;49.556;6.286;2023-01-29T09:18:03;100932.97;;;4.33;56.81
51321;BME280;38732;49.556;6.286;2023-01-29T09:20:32;100924.28;;;4.29;57.61
51321;BME280;38732;49.556;6.286;2023-01-29T09:23:07;100933.97;;;3.52;60.57
51321;BME280;38732;49.556;6.286;2023-01-29T09:25:36;100941.00;;;3.72;60.21
51321;BME280;38732;49.556;6.286;2023-01-29T09:28:04;100939.97;;;3.68;60.88
51321;BME280;38732;49.556;6.286;2023-01-29T09:30:33;100943.16;;;3.48;61.37
51321;BME280;38732;49.556;6.286;2023-01-29T09:33:01;100944.03;;;2.85;63.95
51321;BME280;38732;49.556;6.286;2023-01-29T09:35:29;100961.31;;;1.85;66.70
51321;BME280;38732;49.556;6.286;2023-01-29T09:37:57;100957.38;;;2.95;64.50
51321;BME280;38732;49.556;6.286;2023-01-29T09:40:33;100946.88;;;3.22;62.89
51321;BME280;38732;49.556;6.286;2023-01-29T09:43:06;100949.88;;;2.67;65.60
51321;BME280;38732;49.556;6.286;2023-01-29T09:45:50;100949.91;;;2.52;64.50
51321;BME280;38732;49.556;6.286;2023-01-29T09:48:22;100961.75;;;1.92;67.69
51321;BME280;38732;49.556;6.286;2023-01-29T09:50:55;100963.19;;;2.93;65.84
51321;BME280;38732;49.556;6.286;2023-01-29T09:53:35;100953.75;;;3.39;63.66
51321;BME280;38732;49.556;6.286;2023-01-29T09:56:17;100964.50;;;3.99;60.22
51321;BME280;38732;49.556;6.286;2023-01-29T09:58:47;100949.16;;;3.99;61.77
51321;BME280;38732;49.556;6.286;2023-01-29T10:10:04;100944.28;;;4.74;56.63
51321;BME280;38732;49.556;6.286;2023-01-29T10:19:08;100937.84;;;4.28;58.63
51321;BME280;38732;49.556;6.286;2023-01-29T10:24:56;100944.66;;;4.64;55.35
51321;BME280;38732;49.556;6.286;2023-01-29T10:27:32;100939.19;;;4.56;57.56
51321;BME280;38732;49.556;6.286;2023-01-29T10:30:03;100932.06;;;4.86;56.78
51321;BME280;38732;49.556;6.286;2023-01-29T10:32:36;100928.16;;;4.75;58.21
51321;BME280;38732;49.556;6.286;2023-01-29T10:35:23;100919.75;;;5.15;54.51
51321;BME280;38732;49.556;6.286;2023-01-29T10:37:53;100910.38;;;5.15;53.96
51321;BME280;38732;49.556;6.286;2023-01-29T10:40:28;100913.03;;;5.17;54.02
51321;BME280;38732;49.556;6.286;2023-01-29T10:43:05;100909.44;;;5.13;54.13
51321;BME280;38732;49.556;6.286;2023-01-29T10:45:59;100907.16;;;5.19;55.70
51321;BME280;38732;49.556;6.286;2023-01-29T10:48:36;100894.63;;;5.26;53.59
51321;BME280;38732;49.556;6.286;2023-01-29T10:53:57;100885.59;;;5.14;52.75
51321;BME280;38732;49.556;6.286;2023-01-29T11:01:42;100879.41;;;4.18;59.07
51321;BME280;38732;49.556;6.286;2023-01-29T11:04:10;100880.03;;;2.96;60.95
51321;BME280;38732;49.556;6.286;2023-01-29T11:06:39;100881.09;;;4.00;61.39
51321;BME280;38732;49.556;6.286;2023-01-29T11:09:26;100875.13;;;2.68;62.92
51321;BME280;38732;49.556;6.286;2023-01-29T11:12:00;100867.16;;;3.10;65.41
51321;BME280;38732;49.556;6.286;2023-01-29T11:14:39;100859.53;;;3.60;61.88
51321;BME280;38732;49.556;6.286;2023-01-29T11:17:20;100850.47;;;4.92;59.08
51321;BME280;38732;49.556;6.286;2023-01-29T11:19:51;100852.69;;;5.24;57.36
51321;BME280;38732;49.556;6.286;2023-01-29T11:22:24;100845.50;;;4.95;55.47
51321;BME280;38732;49.556;6.286;2023-01-29T11:25:15;100851.56;;;3.21;61.18
51321;BME280;38732;49.556;6.286;2023-01-29T11:27:55;100850.00;;;3.07;64.62
51321;BME280;38732;49.556;6.286;2023-01-29T11:30:31;100852.00;;;3.80;61.19
51321;BME280;38732;49.556;6.286;2023-01-29T11:35:34;100836.97;;;3.35;62.38
51321;BME280;38732;49.556;6.286;2023-01-29T11:40:39;100847.59;;;2.31;66.47
51321;BME280;38732;49.556;6.286;2023-01-29T11:45:52;100819.28;;;4.26;59.23
51321;BME280;38732;49.556;6.286;2023-01-29T11:48:30;100823.69;;;4.84;58.05
51321;BME280;38732;49.556;6.286;2023-01-29T11:51:00;100811.91;;;5.07;55.29
51321;BME280;38732;49.556;6.286;2023-01-29T11:53:38;100808.50;;;5.28;55.49
51321;BME280;38732;49.556;6.286;2023-01-29T11:58:49;100799.47;;;4.58;57.29
51321;BME280;38732;49.556;6.286;2023-01-29T12:01:29;100793.00;;;4.66;57.88
51321;BME280;38732;49.556;6.286;2023-01-29T12:04:00;100789.19;;;4.39;57.63
51321;BME280;38732;49.556;6.286;2023-01-29T12:06:40;100786.72;;;4.40;57.61
51321;BME280;38732;49.556;6.286;2023-01-29T12:09:15;100780.84;;;5.00;55.77
51321;BME280;38732;49.556;6.286;2023-01-29T12:11:45;100789.81;;;3.45;61.53
51321;BME280;38732;49.556;6.286;2023-01-29T12:14:39;100800.69;;;2.92;64.76
51321;BME280;38732;49.556;6.286;2023-01-29T12:17:17;100790.13;;;3.69;62.00
51321;BME280;38732;49.556;6.286;2023-01-29T12:19:53;100773.97;;;4.42;61.83
51321;BME280;38732;49.556;6.286;2023-01-29T12:22:42;100772.47;;;5.23;57.86
51321;BME280;38732;49.556;6.286;2023-01-29T12:25:21;100768.25;;;5.66;56.38
51321;BME280;38732;49.556;6.286;2023-01-29T12:27:56;100761.25;;;5.82;55.51
51321;BME280;38732;49.556;6.286;2023-01-29T12:33:07;100753.34;;;6.42;54.78
51321;BME280;38732;49.556;6.286;2023-01-29T12:35:46;100746.59;;;6.68;54.32
51321;BME280;38732;49.556;6.286;2023-01-29T12:38:18;100750.19;;;6.50;52.58
51321;BME280;38732;49.556;6.286;2023-01-29T12:40:52;100733.84;;;6.47;53.53
51321;BME280;38732;49.556;6.286;2023-01-29T12:43:44;100729.84;;;6.54;55.13
51321;BME280;38732;49.556;6.286;2023-01-29T12:46:21;100745.53;;;4.16;57.00
51321;BME280;38732;49.556;6.286;2023-01-29T12:48:54;100737.34;;;4.61;60.81
51321;BME280;38732;49.556;6.286;2023-01-29T12:51:28;100732.06;;;4.96;59.26
51321;BME280;38732;49.556;6.286;2023-01-29T12:54:06;100721.31;;;5.25;56.16
51321;BME280;38732;49.556;6.286;2023-01-29T12:57:03;100729.53;;;4.58;58.46
51321;BME280;38732;49.556;6.286;2023-01-29T12:59:43;100728.25;;;4.67;57.24
51321;BME280;38732;49.556;6.286;2023-01-29T13:02:22;100723.88;;;5.25;56.00
51321;BME280;38732;49.556;6.286;2023-01-29T13:05:01;100707.41;;;5.60;55.85
51321;BME280;38732;49.556;6.286;2023-01-29T13:07:36;100703.97;;;5.59;55.60
51321;BME280;38732;49.556;6.286;2023-01-29T13:10:12;100719.44;;;3.68;60.39
51321;BME280;38732;49.556;6.286;2023-01-29T13:12:50;100692.06;;;5.61;55.37
51321;BME280;38732;49.556;6.286;2023-01-29T13:15:27;100688.94;;;5.69;55.31
51321;BME280;38732;49.556;6.286;2023-01-29T13:18:06;100689.59;;;5.86;55.93
51321;BME280;38732;49.556;6.286;2023-01-29T13:20:45;100685.63;;;6.15;54.25
51321;BME280;38732;49.556;6.286;2023-01-29T13:23:33;100696.50;;;5.24;58.70
51321;BME280;38732;49.556;6.286;2023-01-29T13:26:02;100699.03;;;4.62;57.49
51321;BME280;38732;49.556;6.286;2023-01-29T13:28:31;100699.09;;;3.87;64.71
51321;BME280;38732;49.556;6.286;2023-01-29T13:31:29;100700.47;;;3.27;65.46
51321;BME280;38732;49.556;6.286;2023-01-29T13:34:07;100691.81;;;4.34;63.11
51321;BME280;38732;49.556;6.286;2023-01-29T13:37:09;100680.84;;;4.75;61.22
51321;BME280;38732;49.556;6.286;2023-01-29T13:39:39;100683.22;;;4.51;62.04
51321;BME280;38732;49.556;6.286;2023-01-29T13:45:00;100682.59;;;4.18;63.10
51321;BME280;38732;49.556;6.286;2023-01-29T13:47:31;100685.44;;;4.44;61.70
51321;BME280;38732;49.556;6.286;2023-01-29T13:50:03;100691.50;;;3.53;67.14
51321;BME280;38732;49.556;6.286;2023-01-29T13:55:04;100680.72;;;4.92;61.32
51321;BME280;38732;49.556;6.286;2023-01-29T13:57:35;100683.38;;;3.98;64.16
51321;BME280;38732;49.556;6.286;2023-01-29T14:00:04;100684.44;;;4.03;63.92
51321;BME280;38732;49.556;6.286;2023-01-29T14:02:33;100673.78;;;4.31;65.10
51321;BME280;38732;49.556;6.286;2023-01-29T14:10:32;100665.06;;;4.45;61.41
51321;BME280;38732;49.556;6.286;2023-01-29T14:15:33;100654.84;;;5.49;59.98
51321;BME280;38732;49.556;6.286;2023-01-29T14:20:38;100653.75;;;5.42;60.60
51321;BME280;38732;49.556;6.286;2023-01-29T14:23:20;100649.03;;;5.96;56.43
51321;BME280;38732;49.556;6.286;2023-01-29T14:25:49;100643.72;;;6.38;56.24
51321;BME280;38732;49.556;6.286;2023-01-29T14:28:23;100641.56;;;6.02;57.74
51321;BME280;38732;49.556;6.286;2023-01-29T14:30:54;100642.06;;;4.86;60.10
51321;BME280;38732;49.556;6.286;2023-01-29T14:33:23;100633.19;;;6.07;56.75
51321;BME280;38732;49.556;6.286;2023-01-29T14:35:54;100628.84;;;5.60;59.62
51321;BME280;38732;49.556;6.286;2023-01-29T14:38:25;100635.97;;;6.13;56.95
51321;BME280;38732;49.556;6.286;2023-01-29T14:41:04;100633.13;;;6.05;56.73
51321;BME280;38732;49.556;6.286;2023-01-29T14:43:34;100620.38;;;7.06;54.22